createdAt,value
2023-01-22T00:01:17.284Z,93.60
2023-01-22T00:03:46.779Z,93.60
2023-01-22T00:06:15.132Z,93.60
2023-01-22T00:08:42.853Z,93.80
2023-01-22T00:11:11.324Z,93.90
2023-01-22T00:13:39.001Z,94.10
2023-01-22T00:16:07.566Z,94.20
2023-01-22T00:18:35.269Z,94.30
2023-01-22T00:21:03.176Z,94.40
2023-01-22T00:23:30.574Z,94.50
2023-01-22T00:26:06.908Z,94.60
2023-01-22T00:28:34.209Z,94.70
2023-01-22T00:31:03.448Z,94.80
2023-01-22T00:33:31.640Z,95.00
2023-01-22T00:36:11.092Z,95.10
2023-01-22T00:38:38.637Z,95.10
2023-01-22T00:41:08.955Z,95.10
2023-01-22T00:43:39.053Z,95.10
2023-01-22T00:46:08.567Z,95.20
2023-01-22T00:48:36.608Z,95.20
2023-01-22T00:51:04.567Z,95.20
2023-01-22T00:53:31.992Z,95.20
2023-01-22T00:56:01.699Z,95.20
2023-01-22T00:58:30.504Z,95.20
2023-01-22T01:00:58.099Z,95.20
2023-01-22T01:03:28.428Z,95.20
2023-01-22T01:05:57.744Z,95.20
2023-01-22T01:08:25.719Z,95.20
2023-01-22T01:11:01.972Z,95.50
2023-01-22T01:13:31.493Z,95.20
2023-01-22T01:16:04.146Z,95.10
2023-01-22T01:18:32.912Z,95.00
2023-01-22T01:21:01.359Z,94.90
2023-01-22T01:23:29.506Z,94.90
2023-01-22T01:25:57.349Z,95.00
2023-01-22T01:28:25.163Z,95.00
2023-01-22T01:30:52.681Z,94.90
2023-01-22T01:33:21.396Z,94.80
2023-01-22T01:35:48.899Z,94.70
2023-01-22T01:38:16.278Z,94.70
2023-01-22T01:40:44.734Z,94.60
2023-01-22T01:43:16.304Z,94.70
2023-01-22T01:45:44.743Z,94.60
2023-01-22T01:48:24.538Z,94.70
2023-01-22T01:51:15.034Z,94.60
2023-01-22T01:53:46.756Z,94.50
2023-01-22T01:56:18.415Z,94.60
2023-01-22T01:58:47.252Z,94.60
2023-01-22T02:01:17.024Z,94.50
2023-01-22T02:03:46.016Z,94.50
2023-01-22T02:06:17.145Z,94.40
2023-01-22T02:08:49.045Z,94.30
2023-01-22T02:11:19.142Z,94.30
2023-01-22T02:14:18.435Z,94.20
2023-01-22T02:16:45.870Z,94.20
2023-01-22T02:19:14.262Z,94.20
2023-01-22T02:21:43.838Z,94.20
2023-01-22T02:24:14.808Z,94.20
2023-01-22T02:26:44.362Z,94.20
2023-01-22T02:29:17.491Z,94.20
2023-01-22T02:31:44.995Z,94.10
2023-01-22T02:34:13.276Z,94.20
2023-01-22T02:36:41.596Z,94.10
2023-01-22T02:39:09.561Z,94.10
2023-01-22T02:41:38.719Z,94.40
2023-01-22T02:44:07.794Z,94.10
2023-01-22T02:46:35.599Z,94.10
2023-01-22T02:49:04.072Z,94.20
2023-01-22T02:51:33.119Z,94.10
2023-01-22T02:54:00.649Z,94.20
2023-01-22T02:56:28.177Z,94.10
2023-01-22T02:58:55.809Z,94.20
2023-01-22T03:01:25.437Z,94.20
2023-01-22T03:03:59.121Z,94.20
2023-01-22T03:06:28.831Z,94.20
2023-01-22T03:09:01.036Z,94.20
2023-01-22T03:11:33.025Z,94.20
2023-01-22T03:14:24.465Z,94.30
2023-01-22T03:17:12.848Z,94.30
2023-01-22T03:19:58.809Z,94.30
2023-01-22T03:22:27.255Z,94.20
2023-01-22T03:24:55.177Z,94.30
2023-01-22T03:27:27.222Z,94.30
2023-01-22T03:29:55.506Z,94.20
2023-01-22T03:32:24.029Z,94.30
2023-01-22T03:34:51.718Z,94.30
2023-01-22T03:37:19.796Z,94.20
2023-01-22T03:39:50.842Z,94.20
2023-01-22T03:42:28.524Z,94.30
2023-01-22T03:44:56.017Z,94.30
2023-01-22T03:47:24.916Z,94.20
2023-01-22T03:49:52.684Z,94.30
2023-01-22T03:52:20.020Z,94.30
2023-01-22T03:54:47.496Z,94.60
2023-01-22T03:57:14.892Z,94.30
2023-01-22T03:59:43.515Z,94.20
2023-01-22T04:02:11.003Z,94.30
2023-01-22T04:04:51.351Z,94.30
2023-01-22T04:07:18.732Z,94.20
2023-01-22T04:09:47.387Z,94.20
2023-01-22T04:12:14.735Z,94.30
2023-01-22T04:14:43.246Z,94.30
2023-01-22T04:17:10.900Z,94.30
2023-01-22T04:19:51.044Z,94.30
2023-01-22T04:22:41.473Z,94.40
2023-01-22T04:25:11.410Z,94.40
2023-01-22T04:27:39.046Z,94.40
2023-01-22T04:30:07.703Z,94.50
2023-01-22T04:32:35.467Z,94.50
2023-01-22T04:35:17.021Z,94.80
2023-01-22T04:37:50.300Z,94.70
2023-01-22T04:40:18.333Z,94.60
2023-01-22T04:42:47.268Z,94.60
2023-01-22T04:45:15.586Z,94.70
2023-01-22T04:47:45.437Z,94.70
2023-01-22T04:50:19.080Z,94.80
2023-01-22T04:52:47.953Z,94.80
2023-01-22T04:55:15.568Z,94.80
2023-01-22T04:58:09.556Z,94.80
2023-01-22T05:00:37.779Z,94.80
2023-01-22T05:03:06.059Z,94.80
2023-01-22T05:05:34.072Z,94.80
2023-01-22T05:08:01.698Z,94.90
2023-01-22T05:10:31.616Z,94.80
2023-01-22T05:13:03.711Z,94.80
2023-01-22T05:15:31.291Z,94.80
2023-01-22T05:18:04.507Z,94.80
2023-01-22T05:20:35.401Z,94.80
2023-01-22T05:23:03.861Z,94.80
2023-01-22T05:25:32.379Z,95.20
2023-01-22T05:28:00.036Z,95.00
2023-01-22T05:30:37.116Z,95.10
2023-01-22T05:33:24.886Z,95.20
2023-01-22T05:35:57.794Z,95.20
2023-01-22T05:38:25.746Z,95.30
2023-01-22T05:40:53.933Z,95.40
2023-01-22T05:43:22.394Z,95.50
2023-01-22T05:46:03.648Z,95.60
2023-01-22T05:48:54.181Z,95.70
2023-01-22T05:51:25.822Z,95.80
2023-01-22T05:53:53.677Z,95.90
2023-01-22T05:56:21.379Z,96.00
2023-01-22T05:58:50.823Z,96.00
2023-01-22T06:01:18.979Z,96.00
2023-01-22T06:03:50.316Z,96.20
2023-01-22T06:06:20.005Z,96.30
2023-01-22T06:08:48.974Z,96.30
2023-01-22T06:11:17.860Z,96.40
2023-01-22T06:13:47.148Z,96.50
2023-01-22T06:16:19.828Z,96.50
2023-01-22T06:19:05.728Z,96.50
2023-01-22T06:21:39.516Z,96.70
2023-01-22T06:24:07.316Z,96.80
2023-01-22T06:26:34.724Z,96.90
2023-01-22T06:29:03.573Z,97.00
2023-01-22T06:31:31.598Z,97.00
2023-01-22T06:33:59.280Z,97.20
2023-01-22T06:36:27.289Z,97.20
2023-01-22T06:38:55.616Z,97.30
2023-01-22T06:41:36.060Z,97.40
2023-01-22T06:44:05.843Z,97.60
2023-01-22T06:46:33.578Z,97.60
2023-01-22T06:49:05.259Z,97.70
2023-01-22T06:51:33.001Z,98.00
2023-01-22T06:54:00.535Z,98.10
2023-01-22T06:56:28.627Z,97.90
2023-01-22T06:58:57.987Z,97.80
2023-01-22T07:01:26.135Z,97.90
2023-01-22T07:03:53.647Z,97.90
2023-01-22T07:06:21.139Z,97.80
2023-01-22T07:08:48.357Z,97.90
2023-01-22T07:11:16.251Z,98.00
2023-01-22T07:13:43.719Z,98.00
2023-01-22T07:16:11.513Z,97.90
2023-01-22T07:18:38.818Z,98.00
2023-01-22T07:21:06.706Z,98.00
2023-01-22T07:23:34.051Z,98.10
2023-01-22T07:26:01.560Z,98.10
2023-01-22T07:28:29.025Z,98.20
2023-01-22T07:30:57.208Z,98.20
2023-01-22T07:33:24.761Z,98.30
2023-01-22T07:35:59.123Z,98.20
2023-01-22T07:38:29.925Z,98.20
2023-01-22T07:41:11.446Z,98.30
2023-01-22T07:43:49.691Z,98.40
2023-01-22T07:46:17.403Z,98.40
2023-01-22T07:48:46.059Z,98.50
2023-01-22T07:51:13.387Z,98.50
2023-01-22T07:53:42.026Z,98.60
2023-01-22T07:56:09.339Z,98.70
2023-01-22T07:58:36.767Z,98.60
2023-01-22T08:01:08.139Z,98.80
2023-01-22T08:03:38.080Z,98.50
2023-01-22T08:06:11.122Z,98.40
2023-01-22T08:08:39.131Z,98.50
2023-01-22T08:11:06.799Z,98.50
2023-01-22T08:13:34.332Z,98.40
2023-01-22T08:16:01.839Z,98.50
2023-01-22T08:18:29.421Z,98.60
2023-01-22T08:21:00.910Z,98.60
2023-01-22T08:23:28.754Z,98.60
2023-01-22T08:26:04.424Z,98.60
2023-01-22T08:28:32.619Z,98.70
2023-01-22T08:31:01.954Z,98.70
2023-01-22T08:33:32.367Z,98.60
2023-01-22T08:35:59.658Z,98.60
2023-01-22T08:38:27.358Z,98.40
2023-01-22T08:40:54.772Z,98.40
2023-01-22T08:43:22.247Z,98.40
2023-01-22T08:45:49.991Z,98.50
2023-01-22T08:48:17.914Z,98.50
2023-01-22T08:50:45.802Z,98.60
2023-01-22T08:53:13.372Z,98.50
2023-01-22T08:55:40.740Z,98.50
2023-01-22T08:58:08.017Z,98.20
2023-01-22T09:00:35.947Z,98.30
2023-01-22T09:03:03.375Z,98.00
2023-01-22T09:05:30.682Z,98.10
2023-01-22T09:07:58.119Z,98.10
2023-01-22T09:10:25.728Z,97.70
2023-01-22T09:12:53.553Z,97.70
2023-01-22T09:15:21.067Z,97.70
2023-01-22T09:17:48.509Z,97.70
2023-01-22T09:20:16.732Z,97.60
2023-01-22T09:22:49.757Z,97.40
2023-01-22T09:25:17.318Z,97.40
2023-01-22T09:27:46.317Z,97.20
2023-01-22T09:30:17.511Z,97.20
2023-01-22T09:32:45.162Z,97.30
2023-01-22T09:35:12.557Z,97.20
2023-01-22T09:37:40.123Z,97.30
2023-01-22T09:40:12.636Z,97.00
2023-01-22T09:42:41.467Z,97.00
2023-01-22T09:45:12.987Z,96.70
2023-01-22T09:47:50.181Z,96.40
2023-01-22T09:50:22.853Z,96.20
2023-01-22T09:52:53.740Z,96.20
2023-01-22T09:55:27.616Z,95.80
2023-01-22T09:57:56.504Z,95.80
2023-01-22T10:00:46.577Z,95.70
2023-01-22T10:03:31.815Z,95.60
2023-01-22T10:06:16.257Z,95.60
2023-01-22T10:09:10.611Z,95.80
2023-01-22T10:11:39.160Z,95.80
2023-01-22T10:14:09.278Z,95.80
2023-01-22T10:16:37.812Z,96.00
2023-01-22T10:19:17.190Z,95.80
2023-01-22T10:21:51.448Z,95.90
2023-01-22T10:24:18.820Z,95.70
2023-01-22T10:26:54.319Z,95.60
2023-01-22T10:29:21.911Z,95.30
2023-01-22T10:31:53.716Z,95.50
2023-01-22T10:34:30.302Z,95.00
2023-01-22T10:37:18.785Z,94.90
2023-01-22T10:39:50.973Z,94.40
2023-01-22T10:42:21.631Z,94.10
2023-01-22T10:44:49.892Z,94.10
2023-01-22T10:47:20.820Z,94.30
2023-01-22T10:50:04.456Z,94.10
2023-01-22T10:52:39.902Z,93.50
2023-01-22T10:55:18.895Z,93.10
2023-01-22T10:57:52.272Z,93.00
2023-01-22T11:00:21.995Z,92.70
2023-01-22T11:02:51.335Z,92.40
2023-01-22T11:05:27.247Z,92.60
2023-01-22T11:08:05.667Z,92.40
2023-01-22T11:10:52.969Z,92.10
2023-01-22T11:13:45.695Z,91.90
2023-01-22T11:16:20.788Z,91.80
2023-01-22T11:19:13.965Z,91.40
2023-01-22T11:21:44.736Z,91.50
2023-01-22T11:24:21.705Z,91.70
2023-01-22T11:27:42.542Z,91.20
2023-01-22T11:30:47.835Z,91.30
2023-01-22T11:33:45.821Z,91.60
2023-01-22T11:36:28.466Z,91.30
2023-01-22T11:39:05.843Z,91.50
2023-01-22T11:41:36.202Z,91.70
2023-01-22T11:44:31.973Z,91.70
2023-01-22T11:47:17.338Z,91.50
2023-01-22T11:49:56.852Z,91.00
2023-01-22T11:52:24.107Z,91.00
2023-01-22T11:55:02.014Z,91.20
2023-01-22T11:57:38.966Z,91.30
2023-01-22T12:00:45.174Z,91.50
2023-01-22T12:03:27.758Z,91.10
2023-01-22T12:06:38.061Z,90.90
2023-01-22T12:09:08.181Z,91.00
2023-01-22T12:12:02.605Z,91.30
2023-01-22T12:14:42.064Z,90.80
2023-01-22T12:17:37.978Z,90.70
2023-01-22T12:20:34.307Z,90.70
2023-01-22T12:23:08.843Z,90.70
2023-01-22T12:25:38.653Z,90.90
2023-01-22T12:28:36.595Z,90.90
2023-01-22T12:31:16.905Z,91.20
2023-01-22T12:33:44.679Z,91.20
2023-01-22T12:36:16.563Z,91.20
2023-01-22T12:39:25.628Z,91.20
2023-01-22T12:41:58.001Z,91.10
2023-01-22T12:44:48.784Z,91.10
2023-01-22T12:47:40.274Z,91.10
2023-01-22T12:50:22.737Z,91.20
2023-01-22T12:53:05.796Z,91.20
2023-01-22T12:55:38.365Z,91.10
2023-01-22T12:58:21.649Z,91.20
2023-01-22T13:01:05.414Z,91.40
2023-01-22T13:03:33.582Z,91.00
2023-01-22T13:06:25.647Z,91.40
2023-01-22T13:08:53.062Z,91.70
2023-01-22T13:11:36.045Z,91.50
2023-01-22T13:14:43.052Z,91.70
2023-01-22T13:17:20.840Z,91.80
2023-01-22T13:19:50.588Z,92.10
2023-01-22T13:22:24.575Z,92.30
2023-01-22T13:24:55.967Z,92.50
2023-01-22T13:27:33.852Z,92.50
2023-01-22T13:30:17.722Z,92.30
2023-01-22T13:32:45.636Z,92.20
2023-01-22T13:35:15.495Z,92.20
2023-01-22T13:37:45.221Z,92.60
2023-01-22T13:40:46.242Z,92.60
2023-01-22T13:43:21.469Z,92.50
2023-01-22T13:45:51.345Z,92.10
2023-01-22T13:48:21.989Z,92.20
2023-01-22T13:51:06.909Z,92.30
2023-01-22T13:53:41.751Z,92.30
2023-01-22T13:56:17.172Z,92.10
2023-01-22T13:58:48.661Z,92.40
2023-01-22T14:01:34.078Z,92.60
2023-01-22T14:04:04.209Z,92.80
2023-01-22T14:06:47.356Z,92.90
2023-01-22T14:09:25.976Z,92.90
2023-01-22T14:11:53.396Z,93.00
2023-01-22T14:14:20.799Z,93.00
2023-01-22T14:16:48.131Z,93.00
2023-01-22T14:19:16.092Z,93.10
2023-01-22T14:21:43.365Z,93.10
2023-01-22T14:24:10.699Z,92.80
2023-01-22T14:26:38.041Z,92.80
2023-01-22T14:29:05.627Z,92.80
2023-01-22T14:31:33.138Z,92.90
2023-01-22T14:34:00.501Z,92.90
2023-01-22T14:36:27.836Z,93.00
2023-01-22T14:38:55.433Z,92.80
2023-01-22T14:41:23.158Z,92.90
2023-01-22T14:43:50.600Z,93.00
2023-01-22T14:46:17.964Z,93.00
2023-01-22T14:48:45.442Z,93.10
2023-01-22T14:51:13.280Z,93.20
2023-01-22T14:53:40.611Z,93.30
2023-01-22T14:56:08.256Z,93.40
2023-01-22T14:58:36.413Z,93.60
2023-01-22T15:01:15.208Z,93.60
2023-01-22T15:03:42.566Z,93.60
2023-01-22T15:06:10.249Z,93.70
2023-01-22T15:08:37.767Z,93.70
2023-01-22T15:11:07.915Z,93.60
2023-01-22T15:13:35.909Z,93.60
2023-01-22T15:16:08.471Z,93.70
2023-01-22T15:18:36.968Z,93.70
2023-01-22T15:21:05.383Z,93.70
2023-01-22T15:23:34.196Z,93.70
2023-01-22T15:26:04.675Z,93.80
2023-01-22T15:28:32.226Z,93.80
2023-01-22T15:31:10.605Z,93.90
2023-01-22T15:33:38.056Z,94.00
2023-01-22T15:36:06.048Z,94.00
2023-01-22T15:38:33.301Z,94.00
2023-01-22T15:41:18.107Z,94.00
2023-01-22T15:43:50.599Z,93.90
2023-01-22T15:46:23.200Z,93.90
2023-01-22T15:48:51.204Z,93.80
2023-01-22T15:51:19.748Z,93.90
2023-01-22T15:53:51.941Z,94.00
2023-01-22T15:56:21.468Z,93.90
2023-01-22T15:58:51.076Z,93.90
2023-01-22T16:01:19.905Z,93.80
2023-01-22T16:03:47.621Z,93.80
2023-01-22T16:06:18.431Z,93.80
2023-01-22T16:08:46.783Z,93.90
2023-01-22T16:11:15.168Z,93.90
2023-01-22T16:13:43.217Z,93.90
2023-01-22T16:16:17.217Z,93.80
2023-01-22T16:18:45.702Z,93.90
2023-01-22T16:21:14.323Z,93.80
2023-01-22T16:23:43.314Z,93.70
2023-01-22T16:26:16.775Z,93.80
2023-01-22T16:28:45.556Z,93.90
2023-01-22T16:31:17.446Z,93.70
2023-01-22T16:33:46.803Z,93.80
2023-01-22T16:36:17.196Z,93.80
2023-01-22T16:38:45.099Z,93.80
2023-01-22T16:41:25.306Z,93.80
2023-01-22T16:43:56.095Z,93.80
2023-01-22T16:46:25.864Z,93.80
2023-01-22T16:48:59.107Z,93.90
2023-01-22T16:51:28.427Z,94.00
2023-01-22T16:53:56.409Z,94.10
2023-01-22T16:56:23.672Z,94.00
2023-01-22T16:58:51.072Z,93.90
2023-01-22T17:01:18.651Z,93.90
2023-01-22T17:03:46.242Z,93.90
2023-01-22T17:06:26.532Z,93.90
2023-01-22T17:08:54.657Z,93.90
2023-01-22T17:11:22.914Z,93.90
2023-01-22T17:13:50.559Z,93.90
2023-01-22T17:16:18.900Z,94.10
2023-01-22T17:18:47.079Z,93.70
2023-01-22T17:21:17.407Z,93.70
2023-01-22T17:23:45.136Z,94.00
2023-01-22T17:26:15.472Z,93.80
2023-01-22T17:28:43.071Z,93.80
2023-01-22T17:31:15.657Z,93.80
2023-01-22T17:33:44.293Z,93.90
2023-01-22T17:36:13.836Z,93.90
2023-01-22T17:38:41.368Z,93.80
2023-01-22T17:41:11.900Z,93.70
2023-01-22T17:43:39.306Z,93.70
2023-01-22T17:46:12.499Z,93.70
2023-01-22T17:48:40.022Z,93.70
2023-01-22T17:51:10.395Z,93.80
2023-01-22T17:53:39.958Z,93.70
2023-01-22T17:56:37.786Z,93.60
2023-01-22T17:59:06.597Z,93.70
2023-01-22T18:01:36.055Z,93.50
2023-01-22T18:04:12.025Z,93.50
2023-01-22T18:06:41.148Z,93.50
2023-01-22T18:09:09.494Z,93.40
2023-01-22T18:11:38.113Z,93.50
2023-01-22T18:14:08.169Z,93.50
2023-01-22T18:16:38.167Z,93.50
2023-01-22T18:19:07.434Z,93.60
2023-01-22T18:21:37.666Z,93.60
2023-01-22T18:24:07.087Z,93.50
2023-01-22T18:26:35.366Z,93.60
2023-01-22T18:29:02.960Z,93.60
2023-01-22T18:31:30.938Z,93.50
2023-01-22T18:34:02.281Z,93.40
2023-01-22T18:36:36.178Z,93.50
2023-01-22T18:39:10.620Z,93.50
2023-01-22T18:41:39.507Z,93.50
2023-01-22T18:44:08.574Z,93.40
2023-01-22T18:46:41.221Z,93.40
2023-01-22T18:49:18.937Z,93.40
2023-01-22T18:51:46.847Z,93.40
2023-01-22T18:54:14.996Z,93.50
2023-01-22T18:56:42.721Z,93.50
2023-01-22T18:59:13.293Z,93.40
2023-01-22T19:01:41.058Z,93.40
2023-01-22T19:04:11.889Z,93.40
2023-01-22T19:06:39.369Z,93.50
2023-01-22T19:09:14.223Z,93.50
2023-01-22T19:11:43.750Z,93.50
2023-01-22T19:14:15.348Z,93.50
2023-01-22T19:16:45.037Z,93.50
2023-01-22T19:19:13.831Z,93.80
2023-01-22T19:21:46.833Z,93.40
2023-01-22T19:24:16.995Z,93.40
2023-01-22T19:26:46.655Z,93.50
2023-01-22T19:29:17.623Z,93.50
2023-01-22T19:31:48.332Z,93.50
2023-01-22T19:34:23.716Z,93.40
2023-01-22T19:36:57.669Z,93.30
2023-01-22T19:39:26.063Z,93.20
2023-01-22T19:41:54.512Z,93.20
2023-01-22T19:44:22.542Z,93.40
2023-01-22T19:46:50.061Z,93.40
2023-01-22T19:49:17.833Z,93.40
2023-01-22T19:51:45.395Z,93.40
2023-01-22T19:54:13.253Z,93.30
2023-01-22T19:56:45.545Z,93.40
2023-01-22T19:59:16.697Z,93.50
2023-01-22T20:01:45.640Z,93.60
2023-01-22T20:04:23.322Z,93.60
2023-01-22T20:06:55.147Z,93.70
2023-01-22T20:09:22.904Z,93.70
2023-01-22T20:11:55.130Z,93.70
2023-01-22T20:14:29.849Z,93.80
2023-01-22T20:16:58.740Z,93.70
2023-01-22T20:19:27.249Z,93.70
2023-01-22T20:21:55.052Z,93.70
2023-01-22T20:24:22.354Z,93.60
2023-01-22T20:26:54.446Z,93.60
2023-01-22T20:29:21.811Z,93.50
2023-01-22T20:31:52.177Z,93.50
2023-01-22T20:34:20.356Z,93.50
2023-01-22T20:36:48.245Z,93.80
2023-01-22T20:39:16.405Z,93.50
2023-01-22T20:41:45.737Z,93.50
2023-01-22T20:44:13.867Z,93.60
2023-01-22T20:46:44.658Z,93.60
2023-01-22T20:49:12.723Z,93.50
2023-01-22T20:51:40.272Z,93.40
2023-01-22T20:54:07.897Z,93.40
2023-01-22T20:56:35.505Z,93.30
2023-01-22T20:59:09.342Z,93.30
2023-01-22T21:01:36.933Z,93.30
2023-01-22T21:04:05.738Z,93.30
2023-01-22T21:06:35.274Z,93.30
2023-01-22T21:09:04.166Z,93.40
2023-01-22T21:11:32.735Z,93.40
2023-01-22T21:14:02.295Z,93.30
2023-01-22T21:16:32.512Z,93.30
2023-01-22T21:19:03.264Z,93.40
2023-01-22T21:21:32.019Z,93.40
2023-01-22T21:24:00.254Z,93.50
2023-01-22T21:26:30.056Z,93.30
2023-01-22T21:29:00.379Z,93.20
2023-01-22T21:31:29.312Z,93.30
2023-01-22T21:34:04.384Z,93.20
2023-01-22T21:36:34.346Z,93.30
2023-01-22T21:39:02.248Z,93.30
2023-01-22T21:41:29.574Z,93.40
2023-01-22T21:44:15.907Z,93.30
2023-01-22T21:46:45.051Z,93.20
2023-01-22T21:49:18.668Z,93.20
2023-01-22T21:51:50.072Z,93.30
2023-01-22T21:54:20.764Z,93.30
2023-01-22T21:56:49.433Z,93.30
2023-01-22T21:59:17.244Z,93.30
2023-01-22T22:01:45.575Z,93.30
2023-01-22T22:04:14.219Z,93.40
2023-01-22T22:06:42.242Z,93.20
2023-01-22T22:09:14.417Z,93.20
2023-01-22T22:11:42.599Z,93.10
2023-01-22T22:14:12.681Z,93.10
2023-01-22T22:16:40.145Z,93.10
2023-01-22T22:19:07.618Z,93.20
2023-01-22T22:21:35.755Z,93.20
2023-01-22T22:24:03.640Z,93.30
2023-01-22T22:26:31.148Z,93.20
2023-01-22T22:28:58.507Z,93.10
2023-01-22T22:31:26.026Z,93.30
2023-01-22T22:33:55.036Z,93.20
2023-01-22T22:36:25.112Z,93.10
2023-01-22T22:38:53.681Z,93.20
2023-01-22T22:41:23.779Z,93.20
2023-01-22T22:43:53.081Z,93.20
2023-01-22T22:46:25.684Z,93.20
2023-01-22T22:48:54.711Z,93.20
2023-01-22T22:51:27.971Z,93.20
2023-01-22T22:54:00.409Z,93.20
2023-01-22T22:56:29.264Z,93.20
2023-01-22T22:58:58.263Z,93.20
2023-01-22T23:01:26.338Z,93.20
2023-01-22T23:03:53.987Z,93.30
2023-01-22T23:06:28.400Z,93.20
2023-01-22T23:09:10.914Z,93.20
2023-01-22T23:11:38.745Z,93.20
2023-01-22T23:14:06.606Z,93.20
2023-01-22T23:16:37.704Z,93.20
2023-01-22T23:19:07.995Z,93.20
2023-01-22T23:21:37.388Z,93.30
2023-01-22T23:24:06.522Z,93.30
2023-01-22T23:26:34.200Z,93.30
2023-01-22T23:29:04.074Z,93.40
2023-01-22T23:31:33.490Z,93.50
2023-01-22T23:34:02.440Z,93.50
2023-01-22T23:36:30.691Z,93.50
2023-01-22T23:38:58.228Z,93.60
2023-01-22T23:41:25.509Z,93.50
2023-01-22T23:43:52.981Z,93.60
2023-01-22T23:46:26.667Z,93.70
2023-01-22T23:48:55.815Z,93.70
2023-01-22T23:51:23.354Z,93.80
2023-01-22T23:53:54.397Z,93.90
2023-01-22T23:56:24.539Z,93.90
2023-01-22T23:58:56.035Z,93.90
